sensor_id;sensor_type;location;lat;lon;timestamp;pressure;altitude;pressure_sealevel;temperature;humidity
45357;BME280;31092;51.924;21.448;2023-04-07T00:00:17;100093.44;;;3.82;100.00
45357;BME280;31092;51.924;21.448;2023-04-07T00:02:43;100101.53;;;3.92;100.00
45357;BME280;31092;51.924;21.448;2023-04-07T00:05:08;100029.00;;;3.56;100.00
45357;BME280;31092;51.924;21.448;2023-04-07T00:07:34;100072.81;;;3.84;100.00
45357;BME280;31092;51.924;21.448;2023-04-07T00:10:00;100022.78;;;3.55;100.00
45357;BME280;31092;51.924;21.448;2023-04-07T00:12:25;100031.97;;;3.63;100.00
45357;BME280;31092;51.924;21.448;2023-04-07T00:14:51;100083.31;;;3.97;100.00
45357;BME280;31092;51.924;21.448;2023-04-07T00:17:16;100079.06;;;3.94;100.00
45357;BME280;31092;51.924;21.448;2023-04-07T00:19:42;100025.56;;;3.65;100.00
45357;BME280;31092;51.924;21.448;2023-04-07T00:22:08;100082.09;;;4.01;100.00
45357;BME280;31092;51.924;21.448;2023-04-07T00:24:34;100011.00;;;3.69;100.00
45357;BME280;31092;51.924;21.448;2023-04-07T00:26:59;99993.38;;;3.57;100.00
45357;BME280;31092;51.924;21.448;2023-04-07T00:29:25;99953.66;;;3.33;100.00
45357;BME280;31092;51.924;21.448;2023-04-07T00:31:51;100060.31;;;3.96;100.00
45357;BME280;31092;51.924;21.448;2023-04-07T00:34:16;100081.31;;;4.10;100.00
45357;BME280;31092;51.924;21.448;2023-04-07T00:36:42;100010.63;;;3.74;100.00
45357;BME280;31092;51.924;21.448;2023-04-07T00:39:07;100014.84;;;3.76;100.00
45357;BME280;31092;51.924;21.448;2023-04-07T00:41:33;100055.19;;;4.04;100.00
45357;BME280;31092;51.924;21.448;2023-04-07T00:44:00;100016.28;;;3.80;100.00
45357;BME280;31092;51.924;21.448;2023-04-07T00:46:25;99979.94;;;3.58;100.00
45357;BME280;31092;51.924;21.448;2023-04-07T00:48:51;99955.19;;;3.47;100.00
45357;BME280;31092;51.924;21.448;2023-04-07T00:51:19;100061.53;;;4.13;100.00
45357;BME280;31092;51.924;21.448;2023-04-07T00:53:45;100042.00;;;4.02;100.00
45357;BME280;31092;51.924;21.448;2023-04-07T00:56:11;99988.22;;;3.76;100.00
45357;BME280;31092;51.924;21.448;2023-04-07T00:58:37;99963.13;;;3.58;100.00
45357;BME280;31092;51.924;21.448;2023-04-07T01:03:47;100055.00;;;4.17;100.00
45357;BME280;31092;51.924;21.448;2023-04-07T01:06:17;100071.91;;;4.27;100.00
45357;BME280;31092;51.924;21.448;2023-04-07T01:08:56;100049.69;;;4.17;100.00
45357;BME280;31092;51.924;21.448;2023-04-07T01:14:14;99959.56;;;3.69;100.00
45357;BME280;31092;51.924;21.448;2023-04-07T01:16:48;99975.47;;;3.80;100.00
45357;BME280;31092;51.924;21.448;2023-04-07T01:19:36;100064.09;;;4.35;100.00
45357;BME280;31092;51.924;21.448;2023-04-07T01:22:17;99972.69;;;3.81;100.00
45357;BME280;31092;51.924;21.448;2023-04-07T01:25:02;100059.34;;;4.39;100.00
45357;BME280;31092;51.924;21.448;2023-04-07T01:30:11;100048.81;;;4.37;100.00
45357;BME280;31092;51.924;21.448;2023-04-07T01:32:39;100050.63;;;4.37;100.00
45357;BME280;31092;51.924;21.448;2023-04-07T01:35:12;99975.16;;;3.94;100.00
45357;BME280;31092;51.924;21.448;2023-04-07T01:37:38;100024.19;;;4.24;100.00
45357;BME280;31092;51.924;21.448;2023-04-07T01:40:06;99959.81;;;3.87;100.00
45357;BME280;31092;51.924;21.448;2023-04-07T01:42:33;99969.97;;;3.93;100.00
45357;BME280;31092;51.924;21.448;2023-04-07T01:44:59;100042.78;;;4.35;100.00
45357;BME280;31092;51.924;21.448;2023-04-07T01:47:27;100059.28;;;4.50;100.00
45357;BME280;31092;51.924;21.448;2023-04-07T01:49:57;100046.47;;;4.44;100.00
45357;BME280;31092;51.924;21.448;2023-04-07T01:52:25;100052.13;;;4.50;100.00
45357;BME280;31092;51.924;21.448;2023-04-07T01:54:52;100016.63;;;4.29;100.00
45357;BME280;31092;51.924;21.448;2023-04-07T01:57:18;100046.09;;;4.48;100.00
45357;BME280;31092;51.924;21.448;2023-04-07T01:59:43;100021.03;;;4.40;100.00
45357;BME280;31092;51.924;21.448;2023-04-07T02:02:09;100043.03;;;4.53;100.00
45357;BME280;31092;51.924;21.448;2023-04-07T02:04:51;100018.53;;;4.38;100.00
45357;BME280;31092;51.924;21.448;2023-04-07T02:07:24;99965.72;;;4.11;100.00
45357;BME280;31092;51.924;21.448;2023-04-07T02:09:54;100043.78;;;4.65;100.00
45357;BME280;31092;51.924;21.448;2023-04-07T02:12:22;100029.22;;;4.48;100.00
45357;BME280;31092;51.924;21.448;2023-04-07T02:14:49;99959.06;;;4.17;100.00
45357;BME280;31092;51.924;21.448;2023-04-07T02:17:16;100043.38;;;4.69;100.00
45357;BME280;31092;51.924;21.448;2023-04-07T02:19:42;100042.78;;;4.66;100.00
45357;BME280;31092;51.924;21.448;2023-04-07T02:22:10;100044.53;;;4.76;100.00
45357;BME280;31092;51.924;21.448;2023-04-07T02:24:43;99969.47;;;4.29;100.00
45357;BME280;31092;51.924;21.448;2023-04-07T02:27:08;100042.28;;;4.72;100.00
45357;BME280;31092;51.924;21.448;2023-04-07T02:29:34;99947.81;;;4.13;100.00
45357;BME280;31092;51.924;21.448;2023-04-07T02:32:02;99953.72;;;4.17;100.00
45357;BME280;31092;51.924;21.448;2023-04-07T02:34:28;100046.34;;;4.66;100.00
45357;BME280;31092;51.924;21.448;2023-04-07T02:36:53;99944.84;;;4.16;100.00
45357;BME280;31092;51.924;21.448;2023-04-07T02:39:19;100018.50;;;4.59;100.00
45357;BME280;31092;51.924;21.448;2023-04-07T02:41:44;99976.22;;;4.33;100.00
45357;BME280;31092;51.924;21.448;2023-04-07T02:44:13;100039.88;;;4.69;100.00
45357;BME280;31092;51.924;21.448;2023-04-07T02:46:38;100032.69;;;4.60;100.00
45357;BME280;31092;51.924;21.448;2023-04-07T02:49:05;99935.09;;;4.05;100.00
45357;BME280;31092;51.924;21.448;2023-04-07T02:51:31;99982.56;;;4.32;100.00
45357;BME280;31092;51.924;21.448;2023-04-07T02:53:56;100036.66;;;4.75;100.00
45357;BME280;31092;51.924;21.448;2023-04-07T02:56:22;100017.69;;;4.68;100.00
45357;BME280;31092;51.924;21.448;2023-04-07T02:58:47;99959.13;;;4.36;100.00
45357;BME280;31092;51.924;21.448;2023-04-07T03:01:13;100039.50;;;4.83;100.00
45357;BME280;31092;51.924;21.448;2023-04-07T03:03:38;99945.63;;;4.28;100.00
45357;BME280;31092;51.924;21.448;2023-04-07T03:06:04;100026.84;;;4.75;100.00
45357;BME280;31092;51.924;21.448;2023-04-07T03:08:30;100037.72;;;4.93;100.00
45357;BME280;31092;51.924;21.448;2023-04-07T03:10:55;99945.53;;;4.39;100.00
45357;BME280;31092;51.924;21.448;2023-04-07T03:13:21;99967.34;;;4.54;100.00
45357;BME280;31092;51.924;21.448;2023-04-07T03:15:46;99990.47;;;4.74;100.00
45357;BME280;31092;51.924;21.448;2023-04-07T03:18:12;100000.72;;;4.79;100.00
45357;BME280;31092;51.924;21.448;2023-04-07T03:20:37;100039.59;;;5.02;100.00
45357;BME280;31092;51.924;21.448;2023-04-07T03:23:06;99975.00;;;4.68;100.00
45357;BME280;31092;51.924;21.448;2023-04-07T03:25:31;99979.91;;;4.73;100.00
45357;BME280;31092;51.924;21.448;2023-04-07T03:27:57;100004.28;;;4.89;100.00
45357;BME280;31092;51.924;21.448;2023-04-07T03:30:23;100047.50;;;5.14;100.00
45357;BME280;31092;51.924;21.448;2023-04-07T03:32:48;100031.19;;;5.07;100.00
45357;BME280;31092;51.924;21.448;2023-04-07T03:35:13;100043.84;;;5.15;100.00
45357;BME280;31092;51.924;21.448;2023-04-07T03:37:39;99973.94;;;4.80;100.00
45357;BME280;31092;51.924;21.448;2023-04-07T03:40:05;100029.38;;;5.17;100.00
45357;BME280;31092;51.924;21.448;2023-04-07T03:42:30;100033.63;;;5.20;100.00
45357;BME280;31092;51.924;21.448;2023-04-07T03:44:56;99999.41;;;5.04;100.00
45357;BME280;31092;51.924;21.448;2023-04-07T03:47:21;99980.31;;;4.99;100.00
45357;BME280;31092;51.924;21.448;2023-04-07T03:49:47;99970.16;;;4.93;100.00
45357;BME280;31092;51.924;21.448;2023-04-07T03:52:12;100029.00;;;5.32;100.00
45357;BME280;31092;51.924;21.448;2023-04-07T03:54:39;99957.34;;;4.87;100.00
45357;BME280;31092;51.924;21.448;2023-04-07T03:57:05;99958.78;;;4.91;100.00
45357;BME280;31092;51.924;21.448;2023-04-07T03:59:31;100019.44;;;5.29;100.00
45357;BME280;31092;51.924;21.448;2023-04-07T04:01:57;99957.41;;;4.96;100.00
45357;BME280;31092;51.924;21.448;2023-04-07T04:04:22;100046.88;;;5.50;100.00
45357;BME280;31092;51.924;21.448;2023-04-07T04:06:49;100024.94;;;5.47;100.00
45357;BME280;31092;51.924;21.448;2023-04-07T04:09:15;100025.09;;;5.45;100.00
45357;BME280;31092;51.924;21.448;2023-04-07T04:11:41;100028.34;;;5.49;100.00
45357;BME280;31092;51.924;21.448;2023-04-07T04:14:06;99992.72;;;5.29;100.00
45357;BME280;31092;51.924;21.448;2023-04-07T04:16:32;100012.84;;;5.43;100.00
45357;BME280;31092;51.924;21.448;2023-04-07T04:19:00;99894.28;;;4.76;100.00
45357;BME280;31092;51.924;21.448;2023-04-07T04:21:25;100005.84;;;5.42;100.00
45357;BME280;31092;51.924;21.448;2023-04-07T04:23:51;100041.41;;;5.62;100.00
45357;BME280;31092;51.924;21.448;2023-04-07T04:26:17;99973.47;;;5.25;100.00
45357;BME280;31092;51.924;21.448;2023-04-07T04:28:42;100019.91;;;5.53;100.00
45357;BME280;31092;51.924;21.448;2023-04-07T04:31:08;100037.50;;;5.66;100.00
45357;BME280;31092;51.924;21.448;2023-04-07T04:33:33;99976.44;;;5.32;100.00
45357;BME280;31092;51.924;21.448;2023-04-07T04:35:59;99924.09;;;5.00;100.00
45357;BME280;31092;51.924;21.448;2023-04-07T04:38:24;99953.81;;;5.26;100.00
45357;BME280;31092;51.924;21.448;2023-04-07T04:40:50;99980.13;;;5.41;100.00
45357;BME280;31092;51.924;21.448;2023-04-07T04:43:15;100056.06;;;5.87;100.00
45357;BME280;31092;51.924;21.448;2023-04-07T04:45:41;100055.94;;;5.88;100.00
45357;BME280;31092;51.924;21.448;2023-04-07T04:48:06;99980.38;;;5.47;100.00
45357;BME280;31092;51.924;21.448;2023-04-07T04:50:32;100056.38;;;5.93;100.00
45357;BME280;31092;51.924;21.448;2023-04-07T04:52:57;100052.03;;;5.92;100.00
45357;BME280;31092;51.924;21.448;2023-04-07T04:55:23;99827.13;;;4.61;100.00
45357;BME280;31092;51.924;21.448;2023-04-07T04:57:48;100048.22;;;5.95;100.00
45357;BME280;31092;51.924;21.448;2023-04-07T05:00:14;100037.53;;;5.95;100.00
45357;BME280;31092;51.924;21.448;2023-04-07T05:02:39;100037.38;;;5.96;100.00
45357;BME280;31092;51.924;21.448;2023-04-07T05:05:06;100036.53;;;5.96;100.00
45357;BME280;31092;51.924;21.448;2023-04-07T05:07:32;100043.16;;;6.02;100.00
45357;BME280;31092;51.924;21.448;2023-04-07T05:09:57;100045.53;;;6.05;100.00
45357;BME280;31092;51.924;21.448;2023-04-07T05:12:23;100044.56;;;6.06;100.00
45357;BME280;31092;51.924;21.448;2023-04-07T05:14:48;99959.56;;;5.61;100.00
45357;BME280;31092;51.924;21.448;2023-04-07T05:17:14;100008.81;;;5.97;100.00
45357;BME280;31092;51.924;21.448;2023-04-07T05:19:39;100051.28;;;6.29;100.00
45357;BME280;31092;51.924;21.448;2023-04-07T05:22:05;100040.03;;;6.26;100.00
45357;BME280;31092;51.924;21.448;2023-04-07T05:24:31;100047.38;;;6.33;100.00
45357;BME280;31092;51.924;21.448;2023-04-07T05:26:56;100057.19;;;6.42;100.00
45357;BME280;31092;51.924;21.448;2023-04-07T05:29:22;99983.19;;;6.04;100.00
45357;BME280;31092;51.924;21.448;2023-04-07T05:31:47;99967.59;;;5.99;100.00
45357;BME280;31092;51.924;21.448;2023-04-07T05:34:13;100033.56;;;6.38;100.00
45357;BME280;31092;51.924;21.448;2023-04-07T05:36:38;99963.22;;;6.08;100.00
45357;BME280;31092;51.924;21.448;2023-04-07T05:39:04;100037.72;;;6.50;100.00
45357;BME280;31092;51.924;21.448;2023-04-07T05:41:30;100020.44;;;6.44;100.00
45357;BME280;31092;51.924;21.448;2023-04-07T05:43:56;99987.53;;;6.24;100.00
45357;BME280;31092;51.924;21.448;2023-04-07T05:46:21;99965.31;;;6.14;100.00
45357;BME280;31092;51.924;21.448;2023-04-07T05:48:47;100048.97;;;6.63;100.00
45357;BME280;31092;51.924;21.448;2023-04-07T05:51:12;99962.25;;;6.09;100.00
45357;BME280;31092;51.924;21.448;2023-04-07T05:53:37;99985.97;;;6.22;100.00
45357;BME280;31092;51.924;21.448;2023-04-07T05:56:03;99998.78;;;6.28;100.00
45357;BME280;31092;51.924;21.448;2023-04-07T05:58:29;100006.53;;;6.31;100.00
45357;BME280;31092;51.924;21.448;2023-04-07T06:00:54;100052.50;;;6.64;100.00
45357;BME280;31092;51.924;21.448;2023-04-07T06:03:20;100042.34;;;6.58;100.00
45357;BME280;31092;51.924;21.448;2023-04-07T06:05:46;100054.88;;;6.67;100.00
45357;BME280;31092;51.924;21.448;2023-04-07T06:08:11;100039.69;;;6.58;100.00
45357;BME280;31092;51.924;21.448;2023-04-07T06:10:37;99977.56;;;6.27;100.00
45357;BME280;31092;51.924;21.448;2023-04-07T06:13:04;100045.28;;;6.74;100.00
45357;BME280;31092;51.924;21.448;2023-04-07T06:15:29;100047.38;;;6.80;100.00
45357;BME280;31092;51.924;21.448;2023-04-07T06:17:55;100033.88;;;6.72;100.00
45357;BME280;31092;51.924;21.448;2023-04-07T06:20:20;100033.44;;;6.77;100.00
45357;BME280;31092;51.924;21.448;2023-04-07T06:22:47;99962.00;;;6.40;100.00
45357;BME280;31092;51.924;21.448;2023-04-07T06:25:12;100059.09;;;7.07;100.00
45357;BME280;31092;51.924;21.448;2023-04-07T06:27:38;99972.63;;;6.96;100.00
45357;BME280;31092;51.924;21.448;2023-04-07T06:30:04;99985.50;;;7.11;100.00
45357;BME280;31092;51.924;21.448;2023-04-07T06:32:30;99939.66;;;6.96;100.00
45357;BME280;31092;51.924;21.448;2023-04-07T06:34:55;99939.72;;;7.04;100.00
45357;BME280;31092;51.924;21.448;2023-04-07T06:37:21;99920.59;;;6.99;100.00
45357;BME280;31092;51.924;21.448;2023-04-07T06:39:49;99907.97;;;6.91;100.00
45357;BME280;31092;51.924;21.448;2023-04-07T06:42:14;99984.34;;;7.41;100.00
45357;BME280;31092;51.924;21.448;2023-04-07T06:44:40;99895.13;;;6.95;100.00
45357;BME280;31092;51.924;21.448;2023-04-07T06:47:05;99918.78;;;7.17;100.00
45357;BME280;31092;51.924;21.448;2023-04-07T06:49:31;99899.44;;;7.06;100.00
45357;BME280;31092;51.924;21.448;2023-04-07T06:51:57;99936.03;;;7.33;100.00
45357;BME280;31092;51.924;21.448;2023-04-07T06:54:22;99909.63;;;7.20;100.00
45357;BME280;31092;51.924;21.448;2023-04-07T06:56:48;99987.56;;;7.62;100.00
45357;BME280;31092;51.924;21.448;2023-04-07T06:59:13;99930.34;;;7.36;100.00
45357;BME280;31092;51.924;21.448;2023-04-07T07:01:39;99990.72;;;7.76;100.00
45357;BME280;31092;51.924;21.448;2023-04-07T07:04:04;99933.97;;;7.44;100.00
45357;BME280;31092;51.924;21.448;2023-04-07T07:06:30;99980.00;;;7.76;100.00
45357;BME280;31092;51.924;21.448;2023-04-07T07:08:57;99999.97;;;7.81;100.00
45357;BME280;31092;51.924;21.448;2023-04-07T07:11:22;99977.59;;;7.73;100.00
45357;BME280;31092;51.924;21.448;2023-04-07T07:13:48;99959.38;;;7.58;100.00
45357;BME280;31092;51.924;21.448;2023-04-07T07:16:13;99982.81;;;7.74;100.00
45357;BME280;31092;51.924;21.448;2023-04-07T07:18:39;99997.81;;;7.85;100.00
45357;BME280;31092;51.924;21.448;2023-04-07T07:21:04;99911.94;;;7.33;100.00
45357;BME280;31092;51.924;21.448;2023-04-07T07:23:30;99983.03;;;7.81;100.00
45357;BME280;31092;51.924;21.448;2023-04-07T07:25:55;99916.22;;;7.43;100.00
45357;BME280;31092;51.924;21.448;2023-04-07T07:28:21;99990.16;;;7.90;100.00
45357;BME280;31092;51.924;21.448;2023-04-07T07:30:48;99898.44;;;7.42;100.00
45357;BME280;31092;51.924;21.448;2023-04-07T07:33:13;99967.97;;;7.80;100.00
45357;BME280;31092;51.924;21.448;2023-04-07T07:35:39;99938.31;;;7.63;100.00
45357;BME280;31092;51.924;21.448;2023-04-07T07:38:05;99989.75;;;8.03;100.00
45357;BME280;31092;51.924;21.448;2023-04-07T07:40:31;99968.38;;;7.93;100.00
45357;BME280;31092;51.924;21.448;2023-04-07T07:42:56;99936.09;;;7.77;100.00
45357;BME280;31092;51.924;21.448;2023-04-07T07:45:22;99988.28;;;8.08;100.00
45357;BME280;31092;51.924;21.448;2023-04-07T07:47:48;99930.72;;;7.77;100.00
45357;BME280;31092;51.924;21.448;2023-04-07T07:50:13;99942.88;;;7.89;100.00
45357;BME280;31092;51.924;21.448;2023-04-07T07:52:39;99993.41;;;8.20;100.00
45357;BME280;31092;51.924;21.448;2023-04-07T07:55:05;99942.16;;;8.05;100.00
45357;BME280;31092;51.924;21.448;2023-04-07T07:57:31;99949.34;;;8.22;100.00
45357;BME280;31092;51.924;21.448;2023-04-07T07:59:57;99971.34;;;8.52;100.00
45357;BME280;31092;51.924;21.448;2023-04-07T08:02:23;99955.75;;;8.55;100.00
45357;BME280;31092;51.924;21.448;2023-04-07T08:04:55;99984.28;;;8.91;100.00
45357;BME280;31092;51.924;21.448;2023-04-07T08:07:20;99976.25;;;8.99;100.00
45357;BME280;31092;51.924;21.448;2023-04-07T08:09:46;99911.25;;;8.79;100.00
45357;BME280;31092;51.924;21.448;2023-04-07T08:12:11;99897.81;;;8.79;100.00
45357;BME280;31092;51.924;21.448;2023-04-07T08:14:37;99911.97;;;8.97;100.00
45357;BME280;31092;51.924;21.448;2023-04-07T08:17:02;99920.88;;;9.14;100.00
45357;BME280;31092;51.924;21.448;2023-04-07T08:19:28;99961.13;;;9.48;100.00
45357;BME280;31092;51.924;21.448;2023-04-07T08:21:53;99932.38;;;9.32;100.00
45357;BME280;31092;51.924;21.448;2023-04-07T08:24:19;99988.22;;;9.71;100.00
45357;BME280;31092;51.924;21.448;2023-04-07T08:26:45;99948.88;;;9.62;100.00
45357;BME280;31092;51.924;21.448;2023-04-07T08:29:10;99939.47;;;9.58;100.00
45357;BME280;31092;51.924;21.448;2023-04-07T08:31:36;99965.34;;;9.75;100.00
45357;BME280;31092;51.924;21.448;2023-04-07T08:34:01;99918.44;;;9.62;100.00
45357;BME280;31092;51.924;21.448;2023-04-07T08:36:30;99913.72;;;9.64;100.00
45357;BME280;31092;51.924;21.448;2023-04-07T08:38:56;99983.69;;;9.96;100.00
45357;BME280;31092;51.924;21.448;2023-04-07T08:43:57;99997.28;;;9.95;100.00
45357;BME280;31092;51.924;21.448;2023-04-07T08:46:24;99934.41;;;9.47;100.00
45357;BME280;31092;51.924;21.448;2023-04-07T08:48:51;99994.44;;;9.80;100.00
45357;BME280;31092;51.924;21.448;2023-04-07T08:51:25;99939.78;;;9.63;100.00
45357;BME280;31092;51.924;21.448;2023-04-07T08:53:52;99920.78;;;9.56;100.00
45357;BME280;31092;51.924;21.448;2023-04-07T08:56:19;99920.13;;;9.54;100.00
45357;BME280;31092;51.924;21.448;2023-04-07T08:58:47;99930.19;;;9.52;100.00
45357;BME280;31092;51.924;21.448;2023-04-07T09:01:13;99971.06;;;9.72;100.00
45357;BME280;31092;51.924;21.448;2023-04-07T09:03:41;99980.97;;;9.80;100.00
45357;BME280;31092;51.924;21.448;2023-04-07T09:06:09;100007.88;;;9.88;100.00
45357;BME280;31092;51.924;21.448;2023-04-07T09:08:35;99936.25;;;9.46;100.00
45357;BME280;31092;51.924;21.448;2023-04-07T09:11:01;99937.06;;;9.39;100.00
45357;BME280;31092;51.924;21.448;2023-04-07T09:13:27;99927.66;;;9.34;100.00
45357;BME280;31092;51.924;21.448;2023-04-07T09:15:52;99932.19;;;9.34;100.00
45357;BME280;31092;51.924;21.448;2023-04-07T09:18:18;99996.25;;;9.63;100.00
45357;BME280;31092;51.924;21.448;2023-04-07T09:21:02;99924.59;;;9.21;100.00
45357;BME280;31092;51.924;21.448;2023-04-07T09:23:31;100007.84;;;9.64;100.00
45357;BME280;31092;51.924;21.448;2023-04-07T09:25:58;100001.13;;;9.59;100.00
45357;BME280;31092;51.924;21.448;2023-04-07T09:28:37;99995.22;;;9.48;100.00
45357;BME280;31092;51.924;21.448;2023-04-07T09:31:03;99991.84;;;9.46;100.00
45357;BME280;31092;51.924;21.448;2023-04-07T09:33:29;99921.06;;;9.04;100.00
45357;BME280;31092;51.924;21.448;2023-04-07T09:35:55;99927.44;;;9.11;100.00
45357;BME280;31092;51.924;21.448;2023-04-07T09:38:21;99893.81;;;8.91;100.00
45357;BME280;31092;51.924;21.448;2023-04-07T09:40:47;99940.72;;;9.21;100.00
45357;BME280;31092;51.924;21.448;2023-04-07T09:43:18;99942.94;;;9.26;100.00
45357;BME280;31092;51.924;21.448;2023-04-07T09:45:43;99948.66;;;9.31;100.00
45357;BME280;31092;51.924;21.448;2023-04-07T09:48:19;99944.63;;;9.35;100.00
45357;BME280;31092;51.924;21.448;2023-04-07T09:50:46;100005.19;;;9.80;100.00
45357;BME280;31092;51.924;21.448;2023-04-07T09:53:16;99982.84;;;9.79;100.00
45357;BME280;31092;51.924;21.448;2023-04-07T09:55:43;99978.28;;;9.80;100.00
45357;BME280;31092;51.924;21.448;2023-04-07T09:58:11;99991.09;;;9.94;100.00
45357;BME280;31092;51.924;21.448;2023-04-07T10:00:38;99945.53;;;9.68;100.00
45357;BME280;31092;51.924;21.448;2023-04-07T10:03:04;99977.31;;;9.89;100.00
45357;BME280;31092;51.924;21.448;2023-04-07T10:05:31;99951.88;;;9.67;100.00
45357;BME280;31092;51.924;21.448;2023-04-07T10:07:57;99944.00;;;9.66;100.00
45357;BME280;31092;51.924;21.448;2023-04-07T10:10:23;99939.28;;;9.59;100.00
45357;BME280;31092;51.924;21.448;2023-04-07T10:12:53;99937.44;;;9.60;100.00
45357;BME280;31092;51.924;21.448;2023-04-07T10:15:20;99986.38;;;9.80;100.00
45357;BME280;31092;51.924;21.448;2023-04-07T10:17:47;100007.03;;;9.88;100.00
45357;BME280;31092;51.924;21.448;2023-04-07T10:20:16;100021.69;;;9.93;100.00
45357;BME280;31092;51.924;21.448;2023-04-07T10:22:43;99931.53;;;9.40;100.00
45357;BME280;31092;51.924;21.448;2023-04-07T10:25:13;100023.69;;;9.91;100.00
45357;BME280;31092;51.924;21.448;2023-04-07T10:27:44;100016.13;;;9.87;100.00
45357;BME280;31092;51.924;21.448;2023-04-07T10:30:18;99970.56;;;9.61;100.00
45357;BME280;31092;51.924;21.448;2023-04-07T10:32:51;100012.09;;;9.91;100.00
45357;BME280;31092;51.924;21.448;2023-04-07T10:35:18;100027.41;;;9.98;100.00
45357;BME280;31092;51.924;21.448;2023-04-07T10:38:09;100018.47;;;10.06;100.00
45357;BME280;31092;51.924;21.448;2023-04-07T10:40:35;100006.06;;;9.97;100.00
45357;BME280;31092;51.924;21.448;2023-04-07T10:43:02;100024.72;;;10.15;100.00
45357;BME280;31092;51.924;21.448;2023-04-07T10:48:15;100011.59;;;10.12;100.00
45357;BME280;31092;51.924;21.448;2023-04-07T10:50:41;99945.50;;;9.84;100.00
45357;BME280;31092;51.924;21.448;2023-04-07T10:53:09;100022.56;;;10.26;100.00
45357;BME280;31092;51.924;21.448;2023-04-07T10:55:42;100033.16;;;10.36;100.00
45357;BME280;31092;51.924;21.448;2023-04-07T10:58:30;100029.63;;;10.44;100.00
45357;BME280;31092;51.924;21.448;2023-04-07T11:03:23;100014.47;;;10.35;100.00
45357;BME280;31092;51.924;21.448;2023-04-07T11:05:49;99973.56;;;10.06;100.00
45357;BME280;31092;51.924;21.448;2023-04-07T11:08:15;100008.06;;;10.19;100.00
45357;BME280;31092;51.924;21.448;2023-04-07T11:10:56;100009.72;;;10.20;100.00
45357;BME280;31092;51.924;21.448;2023-04-07T11:13:21;100015.94;;;10.21;100.00
45357;BME280;31092;51.924;21.448;2023-04-07T11:15:49;99966.03;;;9.86;100.00
45357;BME280;31092;51.924;21.448;2023-04-07T11:18:17;99959.28;;;9.73;100.00
45357;BME280;31092;51.924;21.448;2023-04-07T11:20:53;100041.53;;;10.17;100.00
45357;BME280;31092;51.924;21.448;2023-04-07T11:23:21;99966.00;;;9.69;100.00
45357;BME280;31092;51.924;21.448;2023-04-07T11:25:52;99996.94;;;9.73;100.00
45357;BME280;31092;51.924;21.448;2023-04-07T11:28:24;99982.28;;;9.51;100.00
45357;BME280;31092;51.924;21.448;2023-04-07T11:30:51;100020.63;;;9.53;100.00
45357;BME280;31092;51.924;21.448;2023-04-07T11:33:19;100067.69;;;9.57;100.00
45357;BME280;31092;51.924;21.448;2023-04-07T11:35:55;100088.63;;;9.46;100.00
45357;BME280;31092;51.924;21.448;2023-04-07T11:38:22;100058.97;;;9.21;100.00
45357;BME280;31092;51.924;21.448;2023-04-07T11:40:48;100041.53;;;8.91;100.00
45357;BME280;31092;51.924;21.448;2023-04-07T11:43:21;100094.56;;;9.15;100.00
45357;BME280;31092;51.924;21.448;2023-04-07T11:46:10;100091.66;;;9.08;100.00
45357;BME280;31092;51.924;21.448;2023-04-07T11:48:38;100088.28;;;9.06;100.00
45357;BME280;31092;51.924;21.448;2023-04-07T11:51:04;100095.69;;;9.04;100.00
45357;BME280;31092;51.924;21.448;2023-04-07T11:53:35;100022.09;;;8.71;100.00
45357;BME280;31092;51.924;21.448;2023-04-07T11:56:04;100101.63;;;9.24;100.00
45357;BME280;31092;51.924;21.448;2023-04-07T11:58:32;100100.31;;;9.28;100.00
45357;BME280;31092;51.924;21.448;2023-04-07T12:00:58;100020.56;;;8.95;100.00
45357;BME280;31092;51.924;21.448;2023-04-07T12:03:29;100045.00;;;9.18;100.00
45357;BME280;31092;51.924;21.448;2023-04-07T12:05:54;100075.56;;;9.51;100.00
45357;BME280;31092;51.924;21.448;2023-04-07T12:08:20;100026.91;;;9.28;100.00
45357;BME280;31092;51.924;21.448;2023-04-07T12:10:46;100108.75;;;9.84;100.00
45357;BME280;31092;51.924;21.448;2023-04-07T12:13:12;100084.88;;;9.81;100.00
45357;BME280;31092;51.924;21.448;2023-04-07T12:15:39;100013.53;;;9.44;100.00
45357;BME280;31092;51.924;21.448;2023-04-07T12:18:05;100038.63;;;9.69;100.00
45357;BME280;31092;51.924;21.448;2023-04-07T12:20:31;100033.25;;;9.77;100.00
45357;BME280;31092;51.924;21.448;2023-04-07T12:22:57;100069.09;;;10.02;100.00
45357;BME280;31092;51.924;21.448;2023-04-07T12:25:24;100023.84;;;9.81;100.00
45357;BME280;31092;51.924;21.448;2023-04-07T12:27:50;100050.44;;;10.09;100.00
45357;BME280;31092;51.924;21.448;2023-04-07T12:30:16;100065.94;;;10.31;100.00
45357;BME280;31092;51.924;21.448;2023-04-07T12:32:41;100067.97;;;10.21;100.00
45357;BME280;31092;51.924;21.448;2023-04-07T12:35:07;100098.28;;;10.40;100.00
45357;BME280;31092;51.924;21.448;2023-04-07T12:37:32;100045.91;;;10.01;100.00
45357;BME280;31092;51.924;21.448;2023-04-07T12:39:58;100109.88;;;10.32;100.00
45357;BME280;31092;51.924;21.448;2023-04-07T12:42:24;100021.28;;;9.64;100.00
45357;BME280;31092;51.924;21.448;2023-04-07T12:44:49;100037.44;;;9.64;100.00
45357;BME280;31092;51.924;21.448;2023-04-07T12:47:15;100115.03;;;10.01;100.00
45357;BME280;31092;51.924;21.448;2023-04-07T12:49:41;100095.81;;;9.88;100.00
45357;BME280;31092;51.924;21.448;2023-04-07T12:52:07;100045.47;;;9.47;100.00
45357;BME280;31092;51.924;21.448;2023-04-07T12:54:32;100061.41;;;9.49;100.00
45357;BME280;31092;51.924;21.448;2023-04-07T12:56:58;100056.88;;;9.41;100.00
45357;BME280;31092;51.924;21.448;2023-04-07T12:59:24;100059.22;;;9.36;100.00